Time;durP1;ratioP1;P1;durP2;ratioP2;P2;SDS_P1;SDS_P2;PMS_P1;PMS_P2;Temp;Humidity;BMP_temperature;BMP_pressure;BME280_temperature;BME280_humidity;BME280_pressure;Samples;Min_cycle;Max_cycle;Signal;HPM_P1;HPM_P2
2023/10/21 00:00:33;;;;;;;5.88;2.30;;;13.10;99.90;;;;;;4956881;29;20054;-81
2023/10/21 00:02:58;;;;;;;3.92;1.90;;;13.00;99.90;;;;;;4955945;29;20039;-80
2023/10/21 00:05:25;;;;;;;6.05;2.63;;;13.00;99.90;;;;;;4939070;28;20391;-80
2023/10/21 00:07:51;;;;;;;7.72;2.33;;;12.90;99.90;;;;;;4956344;29;20039;-81
2023/10/21 00:10:17;;;;;;;5.53;2.30;;;13.00;99.90;;;;;;4956455;29;20038;-81
2023/10/21 00:12:44;;;;;;;5.82;2.55;;;13.00;99.90;;;;;;4938971;29;20039;-81
2023/10/21 00:15:10;;;;;;;7.28;3.08;;;12.90;99.90;;;;;;4956331;29;20114;-80
2023/10/21 00:17:36;;;;;;;6.97;2.50;;;12.90;99.90;;;;;;4955959;29;20032;-80
2023/10/21 00:20:06;;;;;;;8.43;2.88;;;12.80;99.90;;;;;;4955588;28;20139;-79
2023/10/21 00:22:32;;;;;;;7.85;3.67;;;12.80;99.90;;;;;;4956333;28;20047;-79
2023/10/21 00:24:58;;;;;;;9.43;2.95;;;12.80;99.90;;;;;;4956565;28;20027;-79
2023/10/21 00:27:24;;;;;;;10.30;3.70;;;12.80;99.90;;;;;;4956195;29;20042;-79
2023/10/21 00:29:49;;;;;;;6.65;3.40;;;12.70;99.90;;;;;;4956230;28;20035;-80
2023/10/21 00:32:16;;;;;;;7.47;3.28;;;12.70;99.90;;;;;;4956037;28;20106;-79
2023/10/21 00:34:41;;;;;;;5.82;3.33;;;12.70;99.90;;;;;;4956109;29;20061;-80
2023/10/21 00:37:08;;;;;;;7.38;3.47;;;12.70;99.90;;;;;;4954825;28;20106;-79
2023/10/21 00:39:35;;;;;;;8.65;3.85;;;12.70;99.90;;;;;;4955974;28;20403;-80
2023/10/21 00:42:05;;;;;;;5.82;3.60;;;12.60;99.90;;;;;;4938789;29;20488;-80
2023/10/21 00:44:31;;;;;;;9.10;3.33;;;12.60;99.90;;;;;;4956327;29;20035;-79
2023/10/21 00:47:00;;;;;;;7.30;3.55;;;12.60;99.90;;;;;;4955235;29;20043;-79
2023/10/21 00:49:30;;;;;;;10.45;3.55;;;12.60;99.90;;;;;;4938552;29;20543;-80
2023/10/21 00:51:56;;;;;;;7.47;3.33;;;12.60;99.90;;;;;;4938285;29;20160;-80
2023/10/21 00:54:26;;;;;;;9.52;3.75;;;12.60;99.90;;;;;;4955533;28;20519;-80
2023/10/21 00:56:53;;;;;;;7.10;3.38;;;12.60;99.90;;;;;;4955851;28;20045;-80
2023/10/21 00:59:19;;;;;;;5.30;2.78;;;12.60;99.90;;;;;;4955645;29;20042;-80
2023/10/21 01:01:46;;;;;;;5.15;2.63;;;12.60;99.90;;;;;;4937752;29;20028;-80
2023/10/21 01:04:13;;;;;;;8.35;2.92;;;12.70;99.90;;;;;;4955262;28;20105;-80
2023/10/21 01:06:39;;;;;;;7.85;2.90;;;12.60;99.90;;;;;;4955206;29;20110;-80
2023/10/21 01:09:05;;;;;;;8.43;2.97;;;12.60;99.90;;;;;;4954981;29;20113;-80
2023/10/21 01:11:30;;;;;;;6.53;2.67;;;12.60;99.90;;;;;;4955685;28;20407;-81
2023/10/21 01:13:56;;;;;;;4.95;2.15;;;12.60;99.90;;;;;;4937954;29;20489;-80
2023/10/21 01:16:23;;;;;;;10.32;2.80;;;12.60;99.90;;;;;;4954971;29;20558;-81
2023/10/21 01:18:48;;;;;;;6.43;2.47;;;12.70;99.90;;;;;;4955328;29;20039;-80
2023/10/21 01:21:14;;;;;;;7.30;2.15;;;12.70;99.90;;;;;;4953793;29;20478;-80
2023/10/21 01:23:40;;;;;;;7.95;2.58;;;12.70;99.90;;;;;;4932766;29;20043;-80
2023/10/21 01:26:07;;;;;;;10.07;2.75;;;12.70;99.90;;;;;;4954836;28;20129;-81
2023/10/21 01:28:33;;;;;;;7.05;2.60;;;12.70;99.90;;;;;;4954758;29;20031;-79
2023/10/21 01:30:59;;;;;;;7.07;2.80;;;12.70;99.90;;;;;;4954597;28;20039;-81
2023/10/21 01:33:25;;;;;;;5.78;2.30;;;12.70;99.90;;;;;;4937672;29;20094;-80
2023/10/21 01:35:51;;;;;;;7.18;2.63;;;12.70;99.90;;;;;;4954847;28;20043;-80
2023/10/21 01:38:18;;;;;;;7.03;1.90;;;12.80;99.90;;;;;;4955101;29;20379;-80
2023/10/21 01:40:44;;;;;;;5.43;1.92;;;12.80;99.90;;;;;;4937796;29;20131;-80
2023/10/21 01:43:09;;;;;;;5.20;2.08;;;12.80;99.90;;;;;;4955045;28;20063;-79
2023/10/21 01:45:35;;;;;;;8.02;2.20;;;12.80;99.90;;;;;;4955059;29;20038;-80
2023/10/21 01:48:02;;;;;;;5.88;2.22;;;12.80;99.90;;;;;;4954033;28;20039;-80
2023/10/21 01:50:28;;;;;;;3.95;1.80;;;12.90;99.90;;;;;;4937674;29;20031;-79
2023/10/21 01:52:55;;;;;;;6.13;1.73;;;12.90;99.90;;;;;;4935440;29;20035;-80
2023/10/21 01:55:21;;;;;;;6.22;1.88;;;12.90;99.90;;;;;;4928900;29;20496;-80
2023/10/21 01:57:47;;;;;;;5.15;1.70;;;12.90;99.90;;;;;;4935357;29;20043;-81
2023/10/21 02:00:18;;;;;;;5.53;1.70;;;12.90;99.90;;;;;;4935464;29;20067;-81
2023/10/21 02:02:49;;;;;;;5.10;1.58;;;12.90;99.90;;;;;;4935206;29;20030;-81
2023/10/21 02:05:15;;;;;;;4.45;1.42;;;12.90;99.90;;;;;;4935418;29;20040;-81
2023/10/21 02:07:40;;;;;;;4.22;1.48;;;12.90;99.90;;;;;;4938664;29;20047;-80
2023/10/21 02:10:06;;;;;;;4.95;1.30;;;12.90;99.90;;;;;;4934112;29;20031;-81
2023/10/21 02:12:32;;;;;;;4.40;1.90;;;12.90;99.90;;;;;;4917781;29;20107;-81
2023/10/21 02:14:58;;;;;;;6.95;1.70;;;12.90;99.90;;;;;;4935169;29;20055;-81
2023/10/21 02:17:23;;;;;;;3.72;1.50;;;12.90;99.90;;;;;;4935213;29;20042;-81
2023/10/21 02:19:56;;;;;;;3.97;1.80;;;12.80;99.90;;;;;;4934984;28;20052;-81
2023/10/21 02:22:24;;;;;;;3.58;1.70;;;12.80;99.90;;;;;;4935071;29;20063;-81
2023/10/21 02:24:50;;;;;;;3.45;1.33;;;12.80;99.90;;;;;;4934941;29;20059;-80
2023/10/21 02:27:16;;;;;;;5.32;1.75;;;12.80;99.90;;;;;;4934639;29;20099;-80
2023/10/21 02:29:42;;;;;;;5.18;2.00;;;12.80;99.90;;;;;;4935199;29;20035;-81
2023/10/21 02:32:08;;;;;;;5.65;1.88;;;12.80;99.90;;;;;;4935255;29;20031;-81
2023/10/21 02:34:33;;;;;;;3.97;1.70;;;12.80;99.90;;;;;;4917866;29;20547;-81
2023/10/21 02:36:59;;;;;;;7.80;2.03;;;12.80;99.90;;;;;;4935341;29;20036;-81
2023/10/21 02:39:25;;;;;;;6.40;1.90;;;12.80;99.90;;;;;;4935084;29;20036;-81
2023/10/21 02:41:50;;;;;;;5.10;2.22;;;12.70;99.90;;;;;;4935001;29;20499;-81
2023/10/21 02:44:16;;;;;;;5.40;2.28;;;12.70;99.90;;;;;;4936841;29;20067;-81
2023/10/21 02:46:41;;;;;;;7.88;1.88;;;12.80;99.90;;;;;;4921581;29;20135;-81
2023/10/21 02:49:07;;;;;;;6.13;2.47;;;12.80;99.90;;;;;;4938775;28;20044;-80
2023/10/21 02:51:33;;;;;;;7.25;2.00;;;12.80;99.90;;;;;;4938854;29;20039;-81
2023/10/21 02:53:58;;;;;;;6.43;2.15;;;12.80;99.90;;;;;;4938199;29;20039;-80
2023/10/21 02:56:24;;;;;;;6.72;2.10;;;12.80;99.90;;;;;;4937796;29;20076;-80
2023/10/21 02:58:49;;;;;;;6.68;2.13;;;12.80;99.90;;;;;;4938461;29;20122;-80
2023/10/21 03:01:18;;;;;;;4.20;1.98;;;12.80;99.90;;;;;;4938264;29;20391;-81
2023/10/21 03:03:45;;;;;;;5.53;1.88;;;12.80;99.90;;;;;;4938625;29;20032;-81
2023/10/21 03:06:12;;;;;;;6.57;2.28;;;12.80;99.90;;;;;;4920845;29;20178;-81
2023/10/21 03:08:38;;;;;;;4.63;2.17;;;12.80;99.90;;;;;;4938333;29;20036;-81
2023/10/21 03:11:05;;;;;;;8.85;2.65;;;12.90;99.90;;;;;;4920847;29;20027;-81
2023/10/21 03:13:32;;;;;;;6.25;2.40;;;12.80;99.90;;;;;;4920756;29;20046;-81
2023/10/21 03:15:58;;;;;;;3.83;2.03;;;12.80;99.90;;;;;;4921047;29;20510;-81
2023/10/21 03:18:24;;;;;;;7.25;2.17;;;12.80;99.90;;;;;;4921236;29;20114;-81
2023/10/21 03:20:50;;;;;;;5.03;2.50;;;12.90;99.90;;;;;;4937980;29;20048;-80
2023/10/21 03:23:16;;;;;;;3.28;2.00;;;12.90;99.90;;;;;;4938191;29;20031;-80
2023/10/21 03:25:42;;;;;;;9.38;2.20;;;12.90;99.90;;;;;;4937768;29;20047;-80
2023/10/21 03:28:08;;;;;;;7.00;1.95;;;12.80;99.90;;;;;;4938257;29;20032;-80
2023/10/21 03:30:34;;;;;;;6.03;2.80;;;12.80;99.90;;;;;;4921200;29;20507;-80
2023/10/21 03:33:00;;;;;;;5.13;1.95;;;12.80;99.90;;;;;;4922636;29;20044;-80
2023/10/21 03:35:26;;;;;;;4.30;2.10;;;12.90;99.90;;;;;;4922124;29;20046;-80
2023/10/21 03:37:51;;;;;;;4.75;2.20;;;12.90;99.90;;;;;;4938070;29;20024;-80
2023/10/21 03:40:17;;;;;;;5.43;2.50;;;12.90;99.90;;;;;;4937809;29;20484;-80
2023/10/21 03:42:43;;;;;;;4.90;1.88;;;12.90;99.90;;;;;;4920770;29;20027;-80
2023/10/21 03:45:09;;;;;;;3.40;2.15;;;12.90;99.90;;;;;;4937994;29;20031;-80
2023/10/21 03:47:34;;;;;;;4.85;2.15;;;12.90;99.90;;;;;;4920377;29;20114;-80
2023/10/21 03:50:00;;;;;;;6.18;2.17;;;13.00;99.90;;;;;;4950608;29;20148;-80
2023/10/21 03:52:25;;;;;;;3.97;2.10;;;13.00;99.90;;;;;;4956587;28;20082;-80
2023/10/21 03:54:51;;;;;;;5.15;2.20;;;13.00;99.90;;;;;;4939039;28;20047;-80
2023/10/21 03:57:17;;;;;;;5.70;2.60;;;13.00;99.90;;;;;;4941238;28;20086;-80
2023/10/21 03:59:42;;;;;;;4.75;2.38;;;13.10;99.90;;;;;;4976111;28;20043;-81
2023/10/21 04:02:08;;;;;;;4.18;1.80;;;13.10;99.90;;;;;;4975977;28;20042;-81
2023/10/21 04:04:34;;;;;;;5.40;1.90;;;13.10;99.90;;;;;;4975900;28;20122;-81
2023/10/21 04:06:59;;;;;;;4.78;2.10;;;13.10;99.90;;;;;;4975695;28;20558;-80
2023/10/21 04:09:26;;;;;;;6.30;2.75;;;13.10;99.90;;;;;;4975751;28;20062;-80
2023/10/21 04:11:53;;;;;;;4.32;2.33;;;13.10;99.90;;;;;;4975975;28;20031;-81
2023/10/21 04:14:18;;;;;;;7.85;2.58;;;13.10;99.90;;;;;;4975798;28;20114;-80
2023/10/21 04:16:44;;;;;;;9.57;2.25;;;13.10;99.90;;;;;;4958317;28;20510;-80
2023/10/21 04:19:10;;;;;;;7.03;2.72;;;13.10;99.90;;;;;;4975346;28;20039;-80
2023/10/21 04:21:36;;;;;;;5.43;2.72;;;13.10;99.90;;;;;;4958260;28;20517;-81
2023/10/21 04:24:03;;;;;;;6.93;2.47;;;13.10;99.90;;;;;;4975488;28;20039;-80
2023/10/21 04:26:29;;;;;;;4.53;2.35;;;13.20;99.90;;;;;;4975618;28;20126;-80
2023/10/21 04:28:55;;;;;;;6.35;2.55;;;13.10;99.90;;;;;;4975853;28;20045;-81
2023/10/21 04:31:20;;;;;;;5.97;2.47;;;13.10;99.90;;;;;;4942844;29;20036;-80
2023/10/21 04:33:46;;;;;;;7.65;2.83;;;13.10;99.90;;;;;;4959878;28;20040;-80
2023/10/21 04:36:11;;;;;;;3.97;2.47;;;13.10;99.90;;;;;;4936903;29;20047;-79
2023/10/21 04:38:37;;;;;;;9.25;2.95;;;13.10;99.90;;;;;;4936555;29;20523;-80
2023/10/21 04:41:07;;;;;;;8.88;2.50;;;13.10;99.90;;;;;;4951637;29;20543;-80
2023/10/21 04:43:32;;;;;;;6.35;2.70;;;13.10;99.90;;;;;;4937146;29;20047;-80
2023/10/21 04:45:58;;;;;;;6.25;3.22;;;13.00;99.90;;;;;;4938041;29;20043;-80
2023/10/21 04:48:23;;;;;;;4.22;2.72;;;13.00;99.90;;;;;;4946679;29;20050;-80
2023/10/21 04:50:49;;;;;;;6.78;3.08;;;13.00;99.90;;;;;;4936644;29;20047;-80
2023/10/21 04:53:15;;;;;;;6.65;3.22;;;13.00;99.90;;;;;;4935930;29;20039;-81
2023/10/21 04:55:41;;;;;;;7.13;2.75;;;13.00;99.90;;;;;;4936455;29;20123;-81
2023/10/21 04:58:07;;;;;;;7.15;3.42;;;12.90;99.90;;;;;;4936657;29;20555;-81
2023/10/21 05:00:33;;;;;;;7.65;3.78;;;12.90;99.90;;;;;;4936168;29;20102;-82
2023/10/21 05:02:58;;;;;;;5.35;3.17;;;12.90;99.90;;;;;;4936389;29;20039;-80
2023/10/21 05:05:24;;;;;;;7.18;4.15;;;12.90;99.90;;;;;;4936186;29;20047;-81
2023/10/21 05:07:50;;;;;;;7.00;3.60;;;12.90;99.90;;;;;;4935438;29;20503;-81
2023/10/21 05:10:18;;;;;;;10.13;4.03;;;12.90;99.90;;;;;;4936269;29;20497;-81
2023/10/21 05:12:43;;;;;;;9.27;3.85;;;12.90;99.90;;;;;;4936112;29;20042;-81
2023/10/21 05:15:09;;;;;;;8.00;3.60;;;12.80;99.90;;;;;;4935938;29;20462;-80
2023/10/21 05:17:35;;;;;;;12.27;3.90;;;12.80;99.90;;;;;;4935370;29;20515;-82
2023/10/21 05:20:02;;;;;;;9.68;3.65;;;12.80;99.90;;;;;;4955284;29;20078;-80
2023/10/21 05:22:28;;;;;;;6.90;3.60;;;12.80;99.90;;;;;;4955191;28;20095;-82
2023/10/21 05:24:54;;;;;;;8.70;3.50;;;12.80;99.90;;;;;;4955022;29;20043;-81
2023/10/21 05:27:21;;;;;;;8.52;3.72;;;12.80;99.90;;;;;;4955167;28;20039;-81
2023/10/21 05:29:47;;;;;;;8.20;3.40;;;12.70;99.90;;;;;;4938090;29;20039;-80
2023/10/21 05:32:14;;;;;;;10.07;3.33;;;12.70;99.90;;;;;;4954425;28;20046;-80
2023/10/21 05:34:40;;;;;;;8.23;3.75;;;12.70;99.90;;;;;;4927457;29;20040;-80
2023/10/21 05:37:06;;;;;;;10.75;3.10;;;12.70;99.90;;;;;;4965306;28;20487;-81
2023/10/21 05:39:32;;;;;;;7.90;2.90;;;12.70;99.90;;;;;;4954994;28;20023;-80
2023/10/21 05:41:58;;;;;;;7.50;2.90;;;12.70;99.90;;;;;;4959842;28;20031;-80
2023/10/21 05:44:24;;;;;;;6.82;3.50;;;12.70;99.90;;;;;;4974247;28;20106;-80
2023/10/21 05:46:50;;;;;;;7.30;2.97;;;12.70;99.90;;;;;;4973910;28;20043;-80
2023/10/21 05:49:15;;;;;;;7.60;3.05;;;12.70;99.90;;;;;;4974262;28;20085;-80
2023/10/21 05:51:42;;;;;;;13.40;3.80;;;12.70;99.90;;;;;;4973838;28;20077;-80
2023/10/21 05:54:07;;;;;;;6.50;3.22;;;12.80;99.90;;;;;;4974236;28;20074;-80
2023/10/21 05:56:33;;;;;;;7.32;2.90;;;12.70;99.90;;;;;;4974204;28;20068;-80
2023/10/21 05:58:58;;;;;;;6.57;2.92;;;12.80;99.90;;;;;;4973946;28;20038;-80
2023/10/21 06:01:24;;;;;;;9.50;3.20;;;12.80;99.90;;;;;;4974055;28;20034;-80
2023/10/21 06:03:50;;;;;;;6.13;3.10;;;12.80;99.90;;;;;;4974008;28;20035;-81
2023/10/21 06:06:17;;;;;;;7.80;2.80;;;12.80;99.90;;;;;;4973516;28;20509;-81
2023/10/21 06:08:42;;;;;;;10.82;3.13;;;12.80;99.90;;;;;;4973996;28;20031;-80
2023/10/21 06:11:08;;;;;;;6.63;2.28;;;12.80;99.90;;;;;;4956262;28;20372;-81
2023/10/21 06:13:34;;;;;;;7.53;2.75;;;12.80;99.90;;;;;;4956697;28;20026;-82
2023/10/21 06:16:00;;;;;;;6.93;2.70;;;12.80;99.90;;;;;;4956570;28;20465;-81
2023/10/21 06:18:26;;;;;;;6.35;2.60;;;12.90;99.90;;;;;;4975654;28;20114;-81
2023/10/21 06:20:52;;;;;;;7.20;2.60;;;12.80;99.90;;;;;;4977307;28;20050;-79
2023/10/21 06:23:18;;;;;;;7.60;2.83;;;12.90;99.90;;;;;;4977568;28;20046;-80
2023/10/21 06:25:44;;;;;;;5.57;2.05;;;12.90;99.90;;;;;;4977726;28;20499;-81
2023/10/21 06:28:11;;;;;;;6.47;2.45;;;13.00;99.90;;;;;;4977764;28;20041;-82
2023/10/21 06:30:40;;;;;;;7.93;2.63;;;13.00;99.90;;;;;;4977678;28;20027;-81
2023/10/21 06:33:09;;;;;;;8.73;2.33;;;13.10;99.90;;;;;;4977532;28;20456;-81
2023/10/21 06:35:35;;;;;;;10.02;3.33;;;13.10;99.90;;;;;;4977077;28;20035;-80
2023/10/21 06:38:01;;;;;;;6.15;2.60;;;13.00;99.90;;;;;;4960092;28;20406;-79
2023/10/21 06:40:27;;;;;;;8.30;2.40;;;13.10;99.90;;;;;;4977494;28;20117;-81
2023/10/21 06:42:53;;;;;;;7.57;2.47;;;13.10;99.90;;;;;;4977129;28;20156;-81
2023/10/21 06:45:18;;;;;;;7.55;2.88;;;13.10;99.90;;;;;;4977268;28;20042;-81
2023/10/21 06:47:45;;;;;;;6.85;2.83;;;13.10;99.90;;;;;;4977334;28;20055;-81
2023/10/21 06:50:11;;;;;;;8.52;2.80;;;13.10;99.90;;;;;;4959696;28;20030;-81
2023/10/21 06:52:37;;;;;;;5.30;2.35;;;13.00;99.90;;;;;;4977077;28;20157;-81
2023/10/21 06:55:03;;;;;;;6.75;2.60;;;13.10;99.90;;;;;;4977007;28;20185;-81
2023/10/21 06:57:28;;;;;;;9.02;3.05;;;13.10;99.90;;;;;;4959877;28;20027;-81
2023/10/21 06:59:55;;;;;;;7.53;2.97;;;13.10;99.90;;;;;;4977515;28;20030;-82
2023/10/21 07:02:21;;;;;;;5.70;2.45;;;13.10;99.90;;;;;;4977441;28;20035;-81
2023/10/21 07:04:46;;;;;;;6.85;3.00;;;13.20;99.90;;;;;;4976817;28;20543;-82
2023/10/21 07:07:12;;;;;;;5.82;3.08;;;13.20;99.90;;;;;;4977461;28;20510;-81
2023/10/21 07:09:41;;;;;;;9.77;3.22;;;13.30;99.90;;;;;;4977147;28;20502;-81
2023/10/21 07:12:07;;;;;;;5.65;2.80;;;13.30;99.90;;;;;;4939801;29;20031;-83
2023/10/21 07:14:33;;;;;;;7.43;2.60;;;13.40;99.90;;;;;;4945953;29;20040;-81
2023/10/21 07:17:00;;;;;;;9.23;2.90;;;13.40;99.90;;;;;;4945326;29;20115;-82
2023/10/21 07:19:26;;;;;;;4.72;2.55;;;13.50;99.90;;;;;;4947366;28;20039;-82
2023/10/21 07:21:51;;;;;;;12.07;4.03;;;13.50;99.90;;;;;;4925329;29;20139;-82
2023/10/21 07:24:17;;;;;;;5.60;2.85;;;13.60;99.90;;;;;;4938022;29;20485;-81
2023/10/21 07:26:45;;;;;;;9.40;2.70;;;13.60;99.90;;;;;;4926089;29;20040;-82
2023/10/21 07:29:11;;;;;;;8.75;2.53;;;13.60;99.90;;;;;;4937539;29;20083;-83
2023/10/21 07:31:38;;;;;;;7.93;2.42;;;13.70;99.90;;;;;;4922173;29;20447;-83
2023/10/21 07:34:03;;;;;;;5.65;2.67;;;13.70;99.90;;;;;;4938752;29;20027;-83
2023/10/21 07:36:29;;;;;;;7.05;2.40;;;13.80;99.90;;;;;;4939818;29;20170;-82
2023/10/21 07:38:57;;;;;;;5.13;1.98;;;13.80;99.90;;;;;;4940115;29;20023;-83
2023/10/21 07:41:23;;;;;;;7.90;1.95;;;13.90;99.90;;;;;;4939840;29;20031;-83
2023/10/21 07:43:49;;;;;;;6.00;1.92;;;13.90;99.90;;;;;;4956860;29;20038;-85
2023/10/21 07:46:15;;;;;;;4.40;1.92;;;13.90;99.90;;;;;;4956775;28;20043;-83
2023/10/21 07:48:40;;;;;;;5.45;1.85;;;14.00;99.90;;;;;;4956943;29;20039;-84
2023/10/21 07:51:06;;;;;;;6.50;1.67;;;14.00;99.90;;;;;;4956910;28;20042;-82
2023/10/21 07:53:32;;;;;;;7.30;1.90;;;14.10;99.90;;;;;;4956771;28;20039;-82
2023/10/21 07:55:58;;;;;;;9.93;1.95;;;14.10;99.90;;;;;;4939206;29;20031;-83
2023/10/21 07:58:25;;;;;;;7.10;1.40;;;14.10;99.90;;;;;;4939286;28;20035;-82
2023/10/21 08:00:51;;;;;;;5.93;1.90;;;14.20;99.90;;;;;;4939429;29;20043;-83
2023/10/21 08:03:25;;;;;;;7.28;2.10;;;14.20;99.90;;;;;;4939796;29;20547;-84
2023/10/21 08:05:53;;;;;;;4.32;1.55;;;14.20;99.90;;;;;;4939421;29;20502;-81
2023/10/21 08:08:19;;;;;;;5.78;1.70;;;14.30;99.90;;;;;;4938988;29;20522;-82
2023/10/21 08:10:45;;;;;;;6.78;2.20;;;14.20;99.90;;;;;;4938745;29;20028;-82
2023/10/21 08:13:10;;;;;;;5.47;1.70;;;14.30;99.90;;;;;;4956556;29;20031;-83
2023/10/21 08:15:36;;;;;;;4.00;1.42;;;14.20;99.90;;;;;;4955442;29;20028;-83
2023/10/21 08:18:04;;;;;;;4.60;1.60;;;14.20;99.90;;;;;;4939023;29;20081;-83
2023/10/21 08:20:30;;;;;;;4.07;1.40;;;14.20;99.90;;;;;;4936030;29;20151;-87
2023/10/21 08:22:56;;;;;;;3.85;1.38;;;14.10;99.90;;;;;;4955727;29;20354;-84
2023/10/21 08:25:21;;;;;;;5.22;1.23;;;14.10;99.90;;;;;;4939119;29;20031;-84
2023/10/21 08:27:47;;;;;;;2.28;0.90;;;14.00;99.90;;;;;;4939410;29;20036;-83
2023/10/21 08:30:13;;;;;;;3.17;0.60;;;13.90;99.90;;;;;;4938962;29;20475;-85
2023/10/21 08:32:38;;;;;;;3.00;0.68;;;13.90;99.90;;;;;;4956015;29;20118;-84
2023/10/21 08:35:04;;;;;;;3.95;0.65;;;13.80;99.90;;;;;;4956131;28;20126;-85
2023/10/21 08:37:30;;;;;;;3.08;0.60;;;13.80;99.90;;;;;;4956085;28;20150;-80
2023/10/21 08:39:56;;;;;;;4.72;0.70;;;13.90;99.90;;;;;;4938857;29;20039;-84
2023/10/21 08:42:25;;;;;;;2.50;0.60;;;13.90;99.90;;;;;;4955560;28;20039;-83
2023/10/21 08:44:54;;;;;;;3.78;0.70;;;14.00;99.90;;;;;;4956388;28;20066;-85
2023/10/21 08:47:21;;;;;;;4.50;0.60;;;14.00;99.90;;;;;;4957200;29;20108;-83
2023/10/21 08:49:48;;;;;;;1.75;0.77;;;14.10;99.90;;;;;;4956442;29;20065;-85
2023/10/21 08:52:14;;;;;;;1.88;0.40;;;14.10;99.90;;;;;;4956708;28;20054;-83
2023/10/21 08:54:46;;;;;;;2.15;0.30;;;14.10;99.90;;;;;;4956684;28;20028;-82
2023/10/21 08:57:12;;;;;;;1.67;0.40;;;14.20;99.90;;;;;;4956273;29;20037;-82
2023/10/21 08:59:38;;;;;;;1.65;0.60;;;14.20;99.90;;;;;;4955590;29;20047;-81
2023/10/21 09:02:11;;;;;;;2.20;0.43;;;14.20;99.90;;;;;;5080741;27;20396;-79
2023/10/21 09:04:37;;;;;;;1.65;0.32;;;14.20;99.90;;;;;;5080026;28;20071;-79
2023/10/21 09:07:04;;;;;;;1.00;0.20;;;14.20;99.90;;;;;;5078586;28;20028;-79
2023/10/21 09:09:30;;;;;;;1.65;0.35;;;14.20;99.90;;;;;;5086575;22;20032;-79
2023/10/21 09:12:18;;;;;;;2.45;0.30;;;14.30;99.90;;;;;;5080574;28;20040;-79
2023/10/21 09:14:50;;;;;;;3.50;0.75;;;14.40;99.90;;;;;;5080265;28;20025;-79
2023/10/21 09:17:16;;;;;;;1.20;0.25;;;14.50;99.90;;;;;;5077611;28;20033;-79
2023/10/21 09:19:42;;;;;;;0.85;0.20;;;14.50;99.90;;;;;;5080034;28;20029;-79
2023/10/21 09:22:25;;;;;;;2.08;0.20;;;14.70;99.90;;;;;;5079391;28;20025;-79
2023/10/21 09:25:15;;;;;;;2.08;0.50;;;14.80;99.90;;;;;;5078938;28;20158;-79
2023/10/21 09:27:42;;;;;;;0.98;0.20;;;14.90;99.90;;;;;;5078457;28;20109;-79
2023/10/21 09:30:13;;;;;;;1.05;0.22;;;15.00;99.90;;;;;;5076964;28;20032;-79
2023/10/21 09:32:41;;;;;;;1.45;0.20;;;15.20;99.90;;;;;;5078955;28;20025;-79
2023/10/21 09:35:38;;;;;;;3.08;0.30;;;15.20;99.90;;;;;;5076843;28;20051;-79
2023/10/21 09:38:17;;;;;;;2.35;0.47;;;15.20;99.90;;;;;;5075071;28;20082;-79
2023/10/21 09:40:43;;;;;;;1.52;0.30;;;15.30;99.90;;;;;;5076085;28;20036;-80
2023/10/21 09:43:12;;;;;;;2.92;0.30;;;15.20;99.90;;;;;;5076359;28;20060;-79
2023/10/21 09:45:42;;;;;;;1.05;0.13;;;15.20;99.40;;;;;;5078585;28;20021;-79
2023/10/21 09:48:11;;;;;;;1.27;0.10;;;15.40;99.70;;;;;;5077055;28;20017;-79
2023/10/21 09:50:40;;;;;;;3.30;0.60;;;15.30;98.80;;;;;;5079172;28;20032;-79
2023/10/21 09:53:12;;;;;;;2.17;0.30;;;15.30;98.60;;;;;;5078361;28;20040;-79
2023/10/21 09:55:41;;;;;;;0.95;0.20;;;15.50;98.60;;;;;;5076623;28;20039;-79
2023/10/21 09:58:08;;;;;;;0.98;0.10;;;15.60;98.30;;;;;;5079434;28;20048;-79
2023/10/21 10:00:35;;;;;;;1.83;0.30;;;15.70;97.70;;;;;;5076198;28;20063;-79
2023/10/21 10:03:01;;;;;;;2.28;0.40;;;15.80;96.30;;;;;;5075451;28;20021;-79
2023/10/21 10:05:28;;;;;;;3.67;0.30;;;15.80;95.40;;;;;;5077374;28;20031;-79
2023/10/21 10:07:54;;;;;;;2.08;0.30;;;15.90;95.40;;;;;;5077064;28;20017;-79
2023/10/21 10:10:25;;;;;;;4.03;0.68;;;16.00;95.00;;;;;;5077617;28;20068;-79
2023/10/21 10:13:06;;;;;;;1.73;0.20;;;16.00;94.90;;;;;;5067712;28;20542;-79
2023/10/21 10:15:33;;;;;;;3.95;0.30;;;16.20;95.40;;;;;;5064121;28;20508;-79
2023/10/21 10:18:01;;;;;;;1.63;0.20;;;16.40;94.80;;;;;;5063735;28;20021;-79
2023/10/21 10:20:27;;;;;;;1.95;0.20;;;16.50;93.90;;;;;;5064604;28;20035;-80
2023/10/21 10:23:07;;;;;;;2.15;0.40;;;16.60;94.00;;;;;;5064237;28;20084;-79
2023/10/21 10:25:37;;;;;;;2.63;0.30;;;16.70;93.60;;;;;;5063007;28;20419;-80
2023/10/21 10:28:05;;;;;;;2.40;0.30;;;16.90;92.20;;;;;;5064713;28;20345;-80
2023/10/21 10:30:35;;;;;;;1.58;0.30;;;17.20;93.10;;;;;;5064506;28;20017;-80
2023/10/21 10:33:15;;;;;;;2.38;0.28;;;17.50;91.70;;;;;;5064845;28;20036;-80
2023/10/21 10:35:51;;;;;;;1.58;0.32;;;17.80;92.00;;;;;;5064209;28;20028;-81
2023/10/21 10:38:39;;;;;;;2.00;0.20;;;18.10;90.70;;;;;;5064626;28;20115;-81
2023/10/21 10:41:11;;;;;;;3.08;0.35;;;18.30;89.40;;;;;;5064367;28;20035;-81
2023/10/21 10:43:43;;;;;;;2.08;0.43;;;18.60;87.00;;;;;;5062772;28;20029;-79
2023/10/21 10:46:10;;;;;;;2.45;0.30;;;18.80;85.80;;;;;;5065658;28;20031;-83
2023/10/21 10:48:37;;;;;;;2.15;0.40;;;19.00;87.00;;;;;;5064077;28;20048;-80
2023/10/21 10:51:13;;;;;;;2.33;0.40;;;19.10;86.50;;;;;;5062795;28;20033;-80
2023/10/21 10:53:39;;;;;;;1.52;0.20;;;19.50;85.20;;;;;;5065883;28;20525;-80
2023/10/21 10:56:09;;;;;;;1.02;0.20;;;19.90;85.30;;;;;;5062004;28;20071;-80
2023/10/21 10:58:35;;;;;;;1.60;0.30;;;20.40;82.10;;;;;;5064444;28;20056;-80
2023/10/21 11:01:01;;;;;;;3.20;0.40;;;20.40;77.20;;;;;;5063011;28;20037;-80
2023/10/21 11:03:32;;;;;;;4.30;0.40;;;20.30;76.10;;;;;;5065025;28;20099;-80
2023/10/21 11:05:59;;;;;;;2.20;0.32;;;20.20;73.90;;;;;;5063587;28;20115;-80
2023/10/21 11:08:26;;;;;;;2.42;0.20;;;20.30;74.60;;;;;;5062022;28;20033;-80
2023/10/21 11:11:00;;;;;;;1.63;0.30;;;20.70;73.40;;;;;;5063494;28;20100;-80
2023/10/21 11:13:27;;;;;;;1.45;0.20;;;21.10;73.80;;;;;;5061855;28;20051;-81
2023/10/21 11:15:57;;;;;;;1.95;0.40;;;21.70;74.70;;;;;;5065529;28;20044;-81
2023/10/21 11:18:25;;;;;;;1.83;0.32;;;22.50;73.30;;;;;;5063007;28;20054;-81
2023/10/21 11:20:52;;;;;;;3.30;0.40;;;22.90;69.00;;;;;;5062628;28;20493;-81
2023/10/21 11:23:24;;;;;;;3.70;0.43;;;23.40;69.90;;;;;;5063082;28;20045;-81
2023/10/21 11:25:52;;;;;;;1.38;0.22;;;23.80;67.50;;;;;;5061555;28;20053;-80
2023/10/21 11:28:18;;;;;;;1.33;0.30;;;24.30;67.70;;;;;;5063894;28;20028;-81
2023/10/21 11:30:46;;;;;;;2.13;0.40;;;24.70;66.80;;;;;;5061743;28;20025;-81
2023/10/21 11:33:12;;;;;;;1.85;0.40;;;25.00;61.00;;;;;;5063418;28;20021;-81
2023/10/21 11:35:42;;;;;;;1.60;0.30;;;25.10;61.30;;;;;;5064510;28;20035;-81
2023/10/21 11:38:08;;;;;;;2.20;0.50;;;25.30;59.20;;;;;;5062204;28;20013;-81
2023/10/21 11:40:35;;;;;;;2.33;0.57;;;25.50;59.20;;;;;;5063568;28;20085;-81
2023/10/21 11:43:04;;;;;;;2.90;0.60;;;25.60;58.90;;;;;;5061547;28;20033;-81
2023/10/21 11:45:30;;;;;;;3.90;0.50;;;25.60;57.50;;;;;;5063046;28;20028;-81
2023/10/21 11:48:00;;;;;;;3.20;0.40;;;25.90;56.90;;;;;;5063080;28;20082;-81
2023/10/21 11:50:38;;;;;;;2.65;0.40;;;26.00;54.60;;;;;;5064641;28;20021;-81
2023/10/21 11:53:06;;;;;;;5.07;0.55;;;26.10;55.50;;;;;;5062870;28;20017;-81
2023/10/21 11:59:56;;;;;;;4.00;0.63;;;25.50;53.00;;;;;;5064622;28;20036;-81
2023/10/21 12:10:39;;;;;;;2.60;0.60;;;23.60;53.90;;;;;;5062634;28;20025;-80
2023/10/21 12:11:58;;;;;;;3.50;0.50;;;23.50;54.90;;;;;;5064342;28;20102;-80
2023/10/21 12:19:50;;;;;;;4.72;0.60;;;23.60;54.90;;;;;;5064093;28;20082;-81
2023/10/21 12:38:54;;;;;;;4.53;0.60;;;21.90;56.80;;;;;;5062003;28;20052;-80
2023/10/21 12:41:38;;;;;;;4.15;0.50;;;21.70;58.10;;;;;;5061334;28;20124;-80
2023/10/21 12:44:11;;;;;;;3.13;0.57;;;22.30;59.50;;;;;;5058457;28;20055;-80
2023/10/21 12:46:38;;;;;;;4.68;0.75;;;23.20;59.00;;;;;;5060381;28;20400;-80
2023/10/21 12:49:12;;;;;;;4.63;0.57;;;23.30;57.00;;;;;;5061433;28;20034;-80
2023/10/21 12:51:38;;;;;;;2.00;0.40;;;23.50;56.70;;;;;;5043969;28;20029;-79
2023/10/21 12:54:10;;;;;;;2.90;0.60;;;23.90;55.60;;;;;;5041908;28;20052;-80
2023/10/21 12:56:40;;;;;;;4.43;0.70;;;23.90;55.00;;;;;;5040949;28;20021;-80
2023/10/21 12:59:09;;;;;;;3.60;0.60;;;23.60;54.40;;;;;;5043450;28;20085;-80
2023/10/21 13:01:38;;;;;;;1.80;0.35;;;23.20;54.90;;;;;;5042276;28;20045;-80
2023/10/21 13:04:04;;;;;;;4.22;0.47;;;22.80;56.10;;;;;;5046147;28;20384;-80
2023/10/21 13:06:30;;;;;;;5.63;0.77;;;23.10;56.00;;;;;;5041618;28;20516;-80
2023/10/21 13:08:56;;;;;;;4.63;0.50;;;23.20;55.10;;;;;;5056597;28;20080;-81
2023/10/21 13:11:22;;;;;;;4.47;0.80;;;22.90;55.10;;;;;;5062967;28;20417;-81
2023/10/21 13:13:50;;;;;;;6.07;0.77;;;22.70;56.00;;;;;;5060379;28;20021;-81
2023/10/21 13:16:16;;;;;;;5.80;0.60;;;22.60;55.60;;;;;;5061581;28;20017;-80
2023/10/21 13:18:42;;;;;;;4.25;0.73;;;22.40;56.00;;;;;;5063272;28;20025;-80